createdAt,value
2023-03-03T00:00:48.987Z,100.00
2023-03-03T00:03:19.295Z,100.00
2023-03-03T00:05:45.799Z,100.00
2023-03-03T00:08:12.719Z,100.00
2023-03-03T00:10:40.136Z,100.00
2023-03-03T00:13:15.223Z,100.00
2023-03-03T00:15:41.776Z,100.00
2023-03-03T00:18:18.919Z,100.00
2023-03-03T00:21:01.004Z,100.00
2023-03-03T00:23:39.522Z,100.00
2023-03-03T00:26:34.049Z,100.00
2023-03-03T00:29:01.915Z,100.00
2023-03-03T00:31:36.339Z,100.00
2023-03-03T00:34:18.379Z,100.00
2023-03-03T00:36:44.964Z,100.00
2023-03-03T00:39:31.503Z,100.00
2023-03-03T00:41:59.726Z,100.00
2023-03-03T00:44:38.312Z,100.00
2023-03-03T00:47:31.844Z,100.00
2023-03-03T00:50:29.878Z,100.00
2023-03-03T00:53:35.749Z,100.00
2023-03-03T00:56:02.275Z,100.00
2023-03-03T00:58:29.462Z,100.00
2023-03-03T01:00:59.056Z,100.00
2023-03-03T01:03:26.423Z,100.00
2023-03-03T01:05:54.367Z,100.00
2023-03-03T01:08:39.187Z,100.00
2023-03-03T01:11:26.681Z,100.00
2023-03-03T01:13:53.449Z,100.00
2023-03-03T01:16:20.428Z,100.00
2023-03-03T01:18:46.953Z,100.00
2023-03-03T01:21:13.712Z,100.00
2023-03-03T01:23:40.251Z,100.00
2023-03-03T01:26:07.031Z,100.00
2023-03-03T01:28:34.192Z,100.00
2023-03-03T01:31:02.710Z,100.00
2023-03-03T01:33:29.729Z,100.00
2023-03-03T01:36:34.533Z,100.00
2023-03-03T01:39:01.248Z,100.00
2023-03-03T01:41:33.879Z,100.00
2023-03-03T01:44:00.502Z,100.00
2023-03-03T01:46:44.998Z,100.00
2023-03-03T01:49:19.311Z,100.00
2023-03-03T01:51:51.830Z,100.00
2023-03-03T01:54:25.215Z,100.00
2023-03-03T01:56:57.780Z,100.00
2023-03-03T01:59:29.348Z,100.00
2023-03-03T02:01:56.011Z,100.00
2023-03-03T02:04:22.976Z,100.00
2023-03-03T02:06:58.067Z,100.00
2023-03-03T02:09:43.819Z,100.00
2023-03-03T02:12:13.773Z,100.00
2023-03-03T02:14:40.222Z,100.00
2023-03-03T02:17:06.905Z,100.00
2023-03-03T02:19:50.118Z,100.00
2023-03-03T02:22:21.894Z,100.00
2023-03-03T02:24:53.347Z,100.00
2023-03-03T02:27:19.861Z,100.00
2023-03-03T02:29:46.386Z,100.00
2023-03-03T02:32:12.984Z,100.00
2023-03-03T02:34:50.773Z,100.00
2023-03-03T02:37:18.245Z,100.00
2023-03-03T02:39:45.071Z,100.00
2023-03-03T02:42:17.525Z,100.00
2023-03-03T02:44:44.061Z,100.00
2023-03-03T02:47:10.582Z,100.00
2023-03-03T02:49:37.468Z,100.00
2023-03-03T02:52:07.142Z,100.00
2023-03-03T02:54:33.644Z,100.00
2023-03-03T02:57:01.099Z,100.00
2023-03-03T02:59:28.355Z,100.00
2023-03-03T03:01:55.116Z,100.00
2023-03-03T03:04:23.866Z,100.00
2023-03-03T03:06:51.322Z,100.00
2023-03-03T03:09:19.356Z,100.00
2023-03-03T03:11:45.947Z,100.00
2023-03-03T03:14:13.674Z,100.00
2023-03-03T03:16:40.914Z,100.00
2023-03-03T03:19:08.254Z,100.00
2023-03-03T03:21:35.112Z,100.00
2023-03-03T03:24:44.277Z,100.00
2023-03-03T03:27:10.753Z,100.00
2023-03-03T03:30:30.755Z,100.00
2023-03-03T03:32:57.254Z,100.00
2023-03-03T03:35:23.716Z,100.00
2023-03-03T03:37:50.204Z,100.00
2023-03-03T03:40:16.741Z,100.00
2023-03-03T03:42:49.318Z,100.00
2023-03-03T03:45:15.893Z,100.00
2023-03-03T03:47:42.689Z,100.00
2023-03-03T03:50:10.151Z,100.00
2023-03-03T03:52:36.823Z,100.00
2023-03-03T03:55:04.152Z,100.00
2023-03-03T03:57:30.710Z,100.00
2023-03-03T03:59:57.520Z,100.00
2023-03-03T04:02:24.081Z,100.00
2023-03-03T04:04:50.627Z,100.00
2023-03-03T04:07:17.161Z,100.00
2023-03-03T04:09:43.612Z,100.00
2023-03-03T04:12:10.046Z,100.00
2023-03-03T04:14:36.613Z,100.00
2023-03-03T04:17:03.085Z,100.00
2023-03-03T04:19:29.554Z,100.00
2023-03-03T04:21:56.025Z,100.00
2023-03-03T04:24:22.533Z,100.00
2023-03-03T04:26:48.983Z,100.00
2023-03-03T04:29:15.427Z,100.00
2023-03-03T04:31:41.942Z,100.00
2023-03-03T04:34:08.481Z,100.00
2023-03-03T04:36:34.914Z,100.00
2023-03-03T04:39:01.341Z,100.00
2023-03-03T04:41:27.770Z,100.00
2023-03-03T04:43:54.260Z,100.00
2023-03-03T04:46:20.726Z,100.00
2023-03-03T04:48:47.264Z,100.00
2023-03-03T04:51:14.923Z,100.00
2023-03-03T04:53:41.373Z,100.00
2023-03-03T04:56:08.194Z,100.00
2023-03-03T04:58:34.738Z,100.00
2023-03-03T05:01:01.271Z,100.00
2023-03-03T05:03:27.943Z,100.00
2023-03-03T05:05:54.530Z,100.00
2023-03-03T05:08:21.097Z,100.00
2023-03-03T05:10:51.824Z,100.00
2023-03-03T05:13:18.390Z,100.00
2023-03-03T05:15:52.747Z,100.00
2023-03-03T05:18:19.921Z,100.00
2023-03-03T05:21:02.324Z,100.00
2023-03-03T05:23:29.060Z,100.00
2023-03-03T05:25:55.554Z,100.00
2023-03-03T05:28:22.352Z,100.00
2023-03-03T05:30:49.123Z,100.00
2023-03-03T05:33:18.837Z,100.00
2023-03-03T05:36:03.720Z,100.00
2023-03-03T05:38:30.184Z,100.00
2023-03-03T05:40:56.767Z,100.00
2023-03-03T05:43:23.229Z,100.00
2023-03-03T05:45:55.639Z,100.00
2023-03-03T05:48:30.927Z,100.00
2023-03-03T05:51:00.804Z,100.00
2023-03-03T05:56:25.542Z,100.00
2023-03-03T05:59:03.721Z,100.00
2023-03-03T06:01:30.459Z,100.00
2023-03-03T06:04:15.023Z,100.00
2023-03-03T06:06:41.598Z,100.00
2023-03-03T06:09:08.126Z,100.00
2023-03-03T06:11:34.596Z,100.00
2023-03-03T06:14:01.075Z,100.00
2023-03-03T06:16:27.571Z,100.00
2023-03-03T06:18:54.079Z,100.00
2023-03-03T06:21:20.532Z,100.00
2023-03-03T06:23:47.012Z,100.00
2023-03-03T06:26:13.506Z,100.00
2023-03-03T06:28:39.941Z,100.00
2023-03-03T06:31:06.380Z,100.00
2023-03-03T06:33:32.797Z,100.00
2023-03-03T06:35:59.532Z,100.00
2023-03-03T06:38:26.029Z,100.00
2023-03-03T06:40:52.581Z,100.00
2023-03-03T06:43:19.055Z,100.00
2023-03-03T06:49:17.758Z,100.00
2023-03-03T06:51:46.229Z,100.00
2023-03-03T06:54:30.601Z,100.00
2023-03-03T06:57:05.589Z,100.00
2023-03-03T06:59:32.084Z,100.00
2023-03-03T07:01:58.582Z,100.00
2023-03-03T07:04:31.103Z,100.00
2023-03-03T07:07:00.277Z,100.00
2023-03-03T07:09:30.125Z,100.00
2023-03-03T07:12:19.058Z,100.00
2023-03-03T07:14:55.412Z,100.00
2023-03-03T07:17:24.790Z,100.00
2023-03-03T07:19:51.678Z,100.00
2023-03-03T07:22:25.269Z,100.00
2023-03-03T07:24:57.090Z,100.00
2023-03-03T07:27:30.664Z,100.00
2023-03-03T07:30:27.497Z,100.00
2023-03-03T07:32:58.690Z,100.00
2023-03-03T07:35:40.985Z,100.00
2023-03-03T07:38:25.015Z,100.00
2023-03-03T07:40:55.260Z,100.00
2023-03-03T07:43:38.076Z,100.00
2023-03-03T07:46:10.617Z,100.00
2023-03-03T07:48:42.569Z,100.00
2023-03-03T07:51:20.012Z,100.00
2023-03-03T07:53:47.441Z,100.00
2023-03-03T07:56:20.662Z,100.00
2023-03-03T07:58:47.484Z,100.00
2023-03-03T08:01:28.893Z,100.00
2023-03-03T08:03:56.500Z,100.00
2023-03-03T08:06:32.722Z,100.00
2023-03-03T08:09:18.745Z,100.00
2023-03-03T08:12:14.493Z,100.00
2023-03-03T08:14:40.956Z,100.00
2023-03-03T08:17:17.794Z,100.00
2023-03-03T08:19:44.259Z,100.00
2023-03-03T08:22:16.264Z,100.00
2023-03-03T08:24:42.824Z,100.00
2023-03-03T08:27:09.381Z,100.00
2023-03-03T08:29:35.931Z,100.00
2023-03-03T08:32:02.601Z,100.00
2023-03-03T08:34:29.143Z,100.00
2023-03-03T08:36:58.148Z,100.00
2023-03-03T08:39:24.701Z,100.00
2023-03-03T08:41:51.269Z,100.00
2023-03-03T08:44:17.790Z,100.00
2023-03-03T08:46:44.469Z,100.00
2023-03-03T08:49:10.994Z,100.00
2023-03-03T08:51:37.560Z,100.00
2023-03-03T08:54:04.116Z,100.00
2023-03-03T08:56:30.568Z,100.00
2023-03-03T08:59:02.560Z,100.00
2023-03-03T09:01:31.018Z,100.00
2023-03-03T09:03:57.589Z,100.00
2023-03-03T09:06:24.138Z,100.00
2023-03-03T09:08:50.961Z,100.00
2023-03-03T09:11:24.252Z,100.00
2023-03-03T09:13:53.287Z,100.00
2023-03-03T09:16:22.215Z,100.00
2023-03-03T09:18:48.783Z,100.00
2023-03-03T09:21:28.940Z,100.00
2023-03-03T09:24:01.711Z,100.00
2023-03-03T09:26:29.618Z,100.00
2023-03-03T09:29:14.310Z,100.00
2023-03-03T09:31:45.468Z,100.00
2023-03-03T09:34:37.165Z,100.00
2023-03-03T09:37:28.631Z,100.00
2023-03-03T09:39:57.442Z,100.00
2023-03-03T09:42:29.688Z,100.00
2023-03-03T09:45:17.960Z,100.00
2023-03-03T09:48:18.168Z,100.00
2023-03-03T09:51:03.401Z,100.00
2023-03-03T09:53:51.665Z,100.00
2023-03-03T09:56:23.976Z,100.00
2023-03-03T09:59:42.322Z,100.00
2023-03-03T10:02:36.082Z,100.00
2023-03-03T10:05:14.312Z,100.00
2023-03-03T10:07:46.933Z,100.00
2023-03-03T10:10:35.204Z,100.00
2023-03-03T10:13:19.385Z,100.00
2023-03-03T10:16:17.561Z,100.00
2023-03-03T10:19:01.031Z,100.00
2023-03-03T10:21:39.679Z,100.00
2023-03-03T10:24:38.131Z,100.00
2023-03-03T10:27:36.716Z,100.00
2023-03-03T10:30:41.250Z,100.00
2023-03-03T10:33:26.374Z,100.00
2023-03-03T10:36:30.888Z,100.00
2023-03-03T10:39:34.825Z,100.00
2023-03-03T10:42:16.618Z,100.00
2023-03-03T10:44:58.879Z,100.00
2023-03-03T10:47:47.011Z,100.00
2023-03-03T10:50:55.792Z,100.00
2023-03-03T10:53:31.693Z,100.00
2023-03-03T10:56:01.166Z,100.00
2023-03-03T10:58:30.607Z,100.00
2023-03-03T11:01:45.311Z,100.00
2023-03-03T11:04:33.690Z,100.00
2023-03-03T11:07:47.739Z,100.00
2023-03-03T11:10:35.719Z,100.00
2023-03-03T11:13:32.350Z,100.00
2023-03-03T11:16:34.499Z,100.00
2023-03-03T11:19:11.356Z,100.00
2023-03-03T11:21:46.785Z,100.00
2023-03-03T11:24:19.242Z,100.00
2023-03-03T11:26:51.767Z,100.00
2023-03-03T11:29:21.300Z,100.00
2023-03-03T11:31:57.628Z,100.00
2023-03-03T11:34:47.200Z,100.00
2023-03-03T11:38:09.474Z,100.00
2023-03-03T11:40:49.318Z,100.00
2023-03-03T11:43:36.230Z,100.00
2023-03-03T11:46:11.526Z,100.00
2023-03-03T11:49:00.763Z,100.00
2023-03-03T11:51:48.732Z,100.00
2023-03-03T11:54:28.959Z,100.00
2023-03-03T11:57:12.006Z,100.00
2023-03-03T11:59:47.264Z,100.00
2023-03-03T12:02:16.606Z,100.00
2023-03-03T12:04:54.292Z,100.00
2023-03-03T12:07:57.686Z,100.00
2023-03-03T12:10:31.049Z,100.00
2023-03-03T12:13:16.391Z,100.00
2023-03-03T12:16:25.359Z,100.00
2023-03-03T12:19:18.109Z,100.00
2023-03-03T12:21:56.665Z,100.00
2023-03-03T12:24:23.093Z,100.00
2023-03-03T12:27:02.120Z,100.00
2023-03-03T12:29:41.418Z,100.00
2023-03-03T12:32:30.598Z,100.00
2023-03-03T12:35:41.922Z,100.00
2023-03-03T12:38:28.588Z,100.00
2023-03-03T12:41:08.650Z,100.00
2023-03-03T12:44:00.142Z,100.00
2023-03-03T12:46:29.948Z,100.00
2023-03-03T12:48:56.698Z,100.00
2023-03-03T12:51:41.285Z,100.00
2023-03-03T12:54:26.561Z,100.00
2023-03-03T12:57:03.698Z,100.00
2023-03-03T13:00:11.698Z,100.00
2023-03-03T13:02:58.584Z,100.00
2023-03-03T13:05:45.777Z,100.00
2023-03-03T13:08:23.748Z,100.00
2023-03-03T13:11:00.363Z,100.00
2023-03-03T13:13:29.739Z,97.43
2023-03-03T13:16:06.543Z,100.00
2023-03-03T13:18:49.292Z,93.48
2023-03-03T13:21:34.968Z,93.06
2023-03-03T13:24:32.746Z,88.54
2023-03-03T13:27:07.361Z,86.10
2023-03-03T13:29:36.441Z,90.77
2023-03-03T13:32:17.436Z,85.49
2023-03-03T13:34:58.760Z,73.25
2023-03-03T13:37:46.822Z,72.90
2023-03-03T13:40:13.395Z,73.56
2023-03-03T13:42:45.501Z,73.77
2023-03-03T13:45:31.130Z,76.01
2023-03-03T13:48:00.783Z,65.18
2023-03-03T13:50:36.760Z,69.66
2023-03-03T13:53:38.635Z,69.19
2023-03-03T13:56:13.860Z,67.96
2023-03-03T13:59:04.494Z,57.31
2023-03-03T14:01:34.008Z,57.32
2023-03-03T14:04:03.600Z,50.27
2023-03-03T14:06:30.399Z,52.50
2023-03-03T14:09:04.673Z,46.24
2023-03-03T14:11:43.078Z,50.12
2023-03-03T14:14:28.480Z,44.55
2023-03-03T14:17:04.244Z,46.34
2023-03-03T14:19:54.247Z,42.29
2023-03-03T14:22:46.863Z,46.94
2023-03-03T14:25:15.673Z,44.55
2023-03-03T14:27:48.350Z,42.88
2023-03-03T14:30:43.876Z,44.69
2023-03-03T14:33:10.321Z,46.95
2023-03-03T14:35:56.602Z,47.46
2023-03-03T14:38:45.073Z,47.66
2023-03-03T14:41:11.881Z,50.79
2023-03-03T14:43:39.394Z,50.11
2023-03-03T14:46:27.393Z,50.12
2023-03-03T14:48:56.596Z,55.17
2023-03-03T14:51:27.171Z,56.84
2023-03-03T14:53:53.881Z,60.50
2023-03-03T14:56:30.752Z,62.71
2023-03-03T14:59:18.254Z,66.39
2023-03-03T15:01:45.110Z,69.36
2023-03-03T15:04:14.421Z,69.86
2023-03-03T15:06:43.741Z,68.38
2023-03-03T15:09:30.444Z,70.58
2023-03-03T15:11:58.721Z,71.19
2023-03-03T15:14:45.769Z,71.41
2023-03-03T15:17:38.101Z,71.50
2023-03-03T15:20:22.677Z,72.99
2023-03-03T15:23:19.556Z,74.04
2023-03-03T15:25:58.936Z,75.69
2023-03-03T15:28:56.023Z,79.85
2023-03-03T15:31:30.262Z,82.06
2023-03-03T15:34:28.032Z,84.44
2023-03-03T15:37:13.243Z,85.49
2023-03-03T15:40:13.436Z,85.57
2023-03-03T15:42:46.609Z,85.57
2023-03-03T15:45:29.305Z,86.23
2023-03-03T15:48:07.640Z,87.77
2023-03-03T15:50:47.074Z,88.73
2023-03-03T15:53:37.765Z,90.51
2023-03-03T15:56:16.327Z,91.91
2023-03-03T15:59:04.434Z,92.86
2023-03-03T16:01:34.611Z,95.41
2023-03-03T16:04:09.596Z,95.33
2023-03-03T16:07:22.200Z,96.88
2023-03-03T16:09:57.744Z,96.91
2023-03-03T16:12:47.874Z,99.62
2023-03-03T16:15:17.507Z,100.00
2023-03-03T16:18:08.780Z,100.00
2023-03-03T16:20:40.359Z,100.00
2023-03-03T16:23:31.210Z,100.00
2023-03-03T16:26:35.539Z,100.00
2023-03-03T16:29:20.020Z,100.00
2023-03-03T16:32:12.692Z,100.00
2023-03-03T16:34:58.878Z,100.00
2023-03-03T16:37:36.158Z,100.00
2023-03-03T16:40:23.747Z,100.00
2023-03-03T16:42:59.204Z,100.00
2023-03-03T16:45:31.086Z,100.00
2023-03-03T16:47:57.543Z,100.00
2023-03-03T16:50:48.917Z,100.00
2023-03-03T16:53:18.325Z,100.00
2023-03-03T16:56:08.268Z,100.00
2023-03-03T16:58:41.749Z,100.00
2023-03-03T17:01:11.337Z,100.00
2023-03-03T17:03:50.774Z,100.00
2023-03-03T17:06:35.741Z,100.00
2023-03-03T17:09:31.535Z,100.00
2023-03-03T17:12:23.272Z,100.00
2023-03-03T17:14:55.897Z,100.00
2023-03-03T17:17:33.903Z,100.00
2023-03-03T17:20:22.161Z,100.00
2023-03-03T17:23:08.821Z,100.00
2023-03-03T17:25:39.453Z,100.00
2023-03-03T17:28:15.003Z,100.00
2023-03-03T17:30:56.361Z,100.00
2023-03-03T17:33:51.363Z,100.00
2023-03-03T17:36:28.862Z,100.00
2023-03-03T17:38:57.992Z,100.00
2023-03-03T17:42:01.973Z,100.00
2023-03-03T17:44:39.420Z,100.00
2023-03-03T17:47:10.073Z,100.00
2023-03-03T17:49:51.424Z,100.00
2023-03-03T17:52:36.714Z,100.00
2023-03-03T17:55:40.820Z,100.00
2023-03-03T17:58:34.449Z,100.00
2023-03-03T18:01:17.674Z,100.00
2023-03-03T18:03:56.241Z,100.00
2023-03-03T18:06:55.808Z,100.00
2023-03-03T18:09:48.126Z,100.00
2023-03-03T18:12:36.912Z,100.00
2023-03-03T18:15:17.176Z,100.00
2023-03-03T18:18:01.747Z,100.00
2023-03-03T18:21:01.852Z,100.00
2023-03-03T18:23:28.239Z,100.00
2023-03-03T18:26:00.610Z,100.00
2023-03-03T18:29:27.068Z,100.00
2023-03-03T18:31:53.655Z,100.00
2023-03-03T18:34:20.154Z,100.00
2023-03-03T18:37:19.104Z,100.00
2023-03-03T18:40:09.544Z,100.00
2023-03-03T18:42:40.788Z,100.00
2023-03-03T18:45:20.088Z,100.00
2023-03-03T18:48:09.567Z,100.00
2023-03-03T18:50:42.198Z,100.00
2023-03-03T18:53:14.578Z,100.00
2023-03-03T18:55:44.713Z,100.00
2023-03-03T18:58:14.150Z,100.00
2023-03-03T19:00:50.009Z,100.00
2023-03-03T19:03:54.745Z,100.00
2023-03-03T19:06:32.484Z,100.00
2023-03-03T19:08:59.450Z,100.00
2023-03-03T19:11:51.767Z,100.00
2023-03-03T19:14:39.718Z,100.00
2023-03-03T19:17:18.337Z,100.00
2023-03-03T19:20:12.807Z,100.00
2023-03-03T19:22:46.746Z,100.00
2023-03-03T19:25:18.394Z,100.00
2023-03-03T19:27:59.967Z,100.00
2023-03-03T19:31:05.114Z,100.00
2023-03-03T19:33:46.860Z,100.00
2023-03-03T19:36:32.009Z,100.00
2023-03-03T19:39:01.513Z,100.00
2023-03-03T19:41:56.196Z,100.00
2023-03-03T19:44:53.359Z,100.00
2023-03-03T19:47:33.531Z,100.00
2023-03-03T19:50:12.028Z,100.00
2023-03-03T19:52:45.784Z,100.00
2023-03-03T19:55:33.240Z,100.00
2023-03-03T19:58:09.147Z,100.00
2023-03-03T20:00:43.632Z,100.00
2023-03-03T20:03:28.668Z,100.00
2023-03-03T20:06:30.030Z,100.00
2023-03-03T20:09:26.823Z,100.00
2023-03-03T20:12:05.699Z,100.00
2023-03-03T20:14:45.430Z,100.00
2023-03-03T20:17:21.405Z,100.00
2023-03-03T20:20:13.176Z,100.00
2023-03-03T20:23:02.380Z,100.00
2023-03-03T20:25:35.754Z,100.00
2023-03-03T20:28:27.077Z,100.00
2023-03-03T20:31:25.844Z,100.00
2023-03-03T20:34:01.213Z,100.00
2023-03-03T20:36:32.211Z,100.00
2023-03-03T20:39:01.398Z,100.00
2023-03-03T20:41:27.847Z,100.00
2023-03-03T20:44:26.307Z,100.00
2023-03-03T20:47:11.542Z,100.00
2023-03-03T20:49:40.874Z,100.00
2023-03-03T20:52:16.313Z,100.00
2023-03-03T20:54:57.225Z,100.00
2023-03-03T20:57:42.108Z,100.00
2023-03-03T21:00:21.163Z,100.00
2023-03-03T21:02:50.750Z,100.00
2023-03-03T21:05:22.550Z,100.00
2023-03-03T21:07:56.533Z,100.00
2023-03-03T21:10:26.509Z,100.00
2023-03-03T21:12:58.749Z,100.00
2023-03-03T21:15:35.595Z,100.00
2023-03-03T21:18:20.978Z,100.00
2023-03-03T21:20:47.537Z,100.00
2023-03-03T21:23:14.508Z,100.00
2023-03-03T21:25:41.117Z,100.00
2023-03-03T21:28:21.163Z,100.00
2023-03-03T21:31:00.658Z,100.00
2023-03-03T21:33:42.148Z,100.00
2023-03-03T21:36:14.783Z,100.00
2023-03-03T21:38:41.363Z,100.00
2023-03-03T21:41:08.632Z,100.00
2023-03-03T21:43:37.505Z,100.00
2023-03-03T21:46:04.233Z,100.00
2023-03-03T21:48:30.783Z,100.00
2023-03-03T21:50:57.307Z,100.00
2023-03-03T21:53:24.168Z,100.00
2023-03-03T21:55:51.084Z,100.00
2023-03-03T21:58:17.564Z,100.00
2023-03-03T22:00:44.540Z,100.00
2023-03-03T22:03:12.184Z,100.00
2023-03-03T22:05:38.678Z,100.00
2023-03-03T22:08:05.363Z,100.00
2023-03-03T22:10:32.128Z,100.00
2023-03-03T22:12:58.563Z,100.00
2023-03-03T22:15:25.189Z,100.00
2023-03-03T22:17:51.698Z,100.00
2023-03-03T22:20:18.275Z,100.00
2023-03-03T22:22:44.829Z,100.00
2023-03-03T22:25:11.379Z,100.00
2023-03-03T22:27:37.837Z,100.00
2023-03-03T22:30:04.773Z,100.00
2023-03-03T22:32:31.239Z,100.00
2023-03-03T22:34:57.723Z,100.00
2023-03-03T22:37:24.189Z,100.00
2023-03-03T22:39:50.662Z,100.00
2023-03-03T22:42:17.135Z,100.00
2023-03-03T22:44:45.815Z,100.00
2023-03-03T22:47:12.472Z,100.00
2023-03-03T22:49:38.947Z,100.00
2023-03-03T22:52:05.505Z,100.00
2023-03-03T22:54:32.014Z,100.00
2023-03-03T22:56:58.468Z,100.00
2023-03-03T22:59:24.915Z,100.00
2023-03-03T23:01:51.362Z,100.00
2023-03-03T23:04:20.091Z,100.00
2023-03-03T23:06:46.596Z,100.00
2023-03-03T23:09:13.136Z,100.00
2023-03-03T23:11:39.599Z,100.00
2023-03-03T23:14:06.152Z,100.00
2023-03-03T23:16:32.702Z,100.00
2023-03-03T23:18:59.218Z,100.00
2023-03-03T23:21:25.694Z,100.00
2023-03-03T23:23:52.225Z,100.00
2023-03-03T23:26:18.704Z,100.00
2023-03-03T23:28:45.144Z,100.00
2023-03-03T23:31:11.622Z,100.00
2023-03-03T23:33:38.068Z,100.00
2023-03-03T23:36:04.857Z,100.00
2023-03-03T23:38:31.351Z,100.00
2023-03-03T23:40:57.811Z,100.00
2023-03-03T23:43:24.333Z,100.00
2023-03-03T23:45:50.852Z,100.00
2023-03-03T23:48:17.314Z,100.00
2023-03-03T23:50:43.797Z,100.00
2023-03-03T23:53:10.255Z,100.00
2023-03-03T23:55:37.663Z,100.00
2023-03-03T23:58:05.317Z,100.00
